sensor_id;sensor_type;location;lat;lon;timestamp;P1;durP1;ratioP1;P2;durP2;ratioP2
1475;SDS011;730;48.870;12.542;2023-01-29T00:00:03;11.98;;;9.13;;
1475;SDS011;730;48.870;12.542;2023-01-29T00:02:35;10.50;;;8.35;;
1475;SDS011;730;48.870;12.542;2023-01-29T00:05:01;13.38;;;10.10;;
1475;SDS011;730;48.870;12.542;2023-01-29T00:07:28;11.55;;;8.85;;
1475;SDS011;730;48.870;12.542;2023-01-29T00:09:54;10.30;;;8.45;;
1475;SDS011;730;48.870;12.542;2023-01-29T00:12:20;9.85;;;8.63;;
1475;SDS011;730;48.870;12.542;2023-01-29T00:14:46;10.23;;;8.10;;
1475;SDS011;730;48.870;12.542;2023-01-29T00:17:12;8.57;;;7.57;;
1475;SDS011;730;48.870;12.542;2023-01-29T00:19:45;10.82;;;9.10;;
1475;SDS011;730;48.870;12.542;2023-01-29T00:22:11;11.52;;;7.97;;
1475;SDS011;730;48.870;12.542;2023-01-29T00:24:38;9.93;;;7.75;;
1475;SDS011;730;48.870;12.542;2023-01-29T00:27:04;11.27;;;7.40;;
1475;SDS011;730;48.870;12.542;2023-01-29T00:29:30;8.65;;;7.38;;
1475;SDS011;730;48.870;12.542;2023-01-29T00:31:56;8.30;;;6.97;;
1475;SDS011;730;48.870;12.542;2023-01-29T00:34:22;11.10;;;8.80;;
1475;SDS011;730;48.870;12.542;2023-01-29T00:36:48;9.55;;;7.40;;
1475;SDS011;730;48.870;12.542;2023-01-29T00:39:14;9.32;;;7.13;;
1475;SDS011;730;48.870;12.542;2023-01-29T00:41:40;7.65;;;6.85;;
1475;SDS011;730;48.870;12.542;2023-01-29T00:44:25;8.73;;;6.60;;
1475;SDS011;730;48.870;12.542;2023-01-29T00:47:10;6.63;;;5.93;;
1475;SDS011;730;48.870;12.542;2023-01-29T00:49:55;11.68;;;7.13;;
1475;SDS011;730;48.870;12.542;2023-01-29T00:52:21;7.25;;;6.25;;
1475;SDS011;730;48.870;12.542;2023-01-29T00:54:58;7.10;;;6.40;;
1475;SDS011;730;48.870;12.542;2023-01-29T00:57:25;7.35;;;6.50;;
1475;SDS011;730;48.870;12.542;2023-01-29T00:59:52;7.55;;;5.85;;
1475;SDS011;730;48.870;12.542;2023-01-29T01:02:19;7.50;;;6.80;;
1475;SDS011;730;48.870;12.542;2023-01-29T01:05:04;7.68;;;6.35;;
1475;SDS011;730;48.870;12.542;2023-01-29T01:07:32;7.00;;;6.07;;
1475;SDS011;730;48.870;12.542;2023-01-29T01:09:58;7.20;;;5.88;;
1475;SDS011;730;48.870;12.542;2023-01-29T01:12:43;5.80;;;5.20;;
1475;SDS011;730;48.870;12.542;2023-01-29T01:15:09;6.50;;;5.82;;
1475;SDS011;730;48.870;12.542;2023-01-29T01:17:35;18.73;;;12.60;;
1475;SDS011;730;48.870;12.542;2023-01-29T01:20:02;15.40;;;11.45;;
1475;SDS011;730;48.870;12.542;2023-01-29T01:22:30;6.25;;;5.45;;
1475;SDS011;730;48.870;12.542;2023-01-29T01:24:57;7.07;;;5.32;;
1475;SDS011;730;48.870;12.542;2023-01-29T01:27:23;6.25;;;4.90;;
1475;SDS011;730;48.870;12.542;2023-01-29T01:29:50;6.35;;;5.00;;
1475;SDS011;730;48.870;12.542;2023-01-29T01:32:16;6.43;;;5.32;;
1475;SDS011;730;48.870;12.542;2023-01-29T01:34:42;5.97;;;5.10;;
1475;SDS011;730;48.870;12.542;2023-01-29T01:37:09;6.53;;;5.95;;
1475;SDS011;730;48.870;12.542;2023-01-29T01:39:36;5.70;;;4.90;;
1475;SDS011;730;48.870;12.542;2023-01-29T01:42:02;5.35;;;4.75;;
1475;SDS011;730;48.870;12.542;2023-01-29T01:47:35;2.60;;;2.40;;
1475;SDS011;730;48.870;12.542;2023-01-29T01:50:09;2.38;;;2.17;;
1475;SDS011;730;48.870;12.542;2023-01-29T01:52:40;3.22;;;2.58;;
1475;SDS011;730;48.870;12.542;2023-01-29T01:55:14;2.30;;;2.03;;
1475;SDS011;730;48.870;12.542;2023-01-29T01:57:44;2.28;;;2.08;;
1475;SDS011;730;48.870;12.542;2023-01-29T02:00:15;3.70;;;2.30;;
1475;SDS011;730;48.870;12.542;2023-01-29T02:02:43;3.10;;;2.28;;
1475;SDS011;730;48.870;12.542;2023-01-29T02:05:33;2.17;;;1.85;;
1475;SDS011;730;48.870;12.542;2023-01-29T02:08:23;2.00;;;1.73;;
1475;SDS011;730;48.870;12.542;2023-01-29T02:11:29;2.15;;;1.95;;
1475;SDS011;730;48.870;12.542;2023-01-29T02:13:55;2.50;;;2.10;;
1475;SDS011;730;48.870;12.542;2023-01-29T02:16:22;2.90;;;2.17;;
1475;SDS011;730;48.870;12.542;2023-01-29T02:18:48;2.65;;;2.38;;
1475;SDS011;730;48.870;12.542;2023-01-29T02:27:08;2.10;;;1.90;;
1475;SDS011;730;48.870;12.542;2023-01-29T02:29:50;2.67;;;2.15;;
1475;SDS011;730;48.870;12.542;2023-01-29T02:33:08;2.25;;;2.05;;
1475;SDS011;730;48.870;12.542;2023-01-29T02:35:33;2.42;;;1.92;;
1475;SDS011;730;48.870;12.542;2023-01-29T02:43:58;1.70;;;1.60;;
1475;SDS011;730;48.870;12.542;2023-01-29T02:46:44;3.20;;;2.90;;
1475;SDS011;730;48.870;12.542;2023-01-29T02:49:22;3.20;;;2.90;;
1475;SDS011;730;48.870;12.542;2023-01-29T02:54:33;2.83;;;2.42;;
1475;SDS011;730;48.870;12.542;2023-01-29T02:57:18;2.70;;;2.00;;
1475;SDS011;730;48.870;12.542;2023-01-29T02:59:49;2.58;;;2.15;;
1475;SDS011;730;48.870;12.542;2023-01-29T03:02:25;2.60;;;2.03;;
1475;SDS011;730;48.870;12.542;2023-01-29T03:04:59;2.00;;;1.80;;
1475;SDS011;730;48.870;12.542;2023-01-29T03:07:30;2.15;;;1.95;;
1475;SDS011;730;48.870;12.542;2023-01-29T03:10:12;2.25;;;1.70;;
1475;SDS011;730;48.870;12.542;2023-01-29T03:12:43;3.17;;;2.35;;
1475;SDS011;730;48.870;12.542;2023-01-29T03:15:18;3.03;;;2.00;;
1475;SDS011;730;48.870;12.542;2023-01-29T03:18:06;3.42;;;2.00;;
1475;SDS011;730;48.870;12.542;2023-01-29T03:20:40;2.25;;;1.95;;
1475;SDS011;730;48.870;12.542;2023-01-29T03:23:18;2.65;;;2.30;;
1475;SDS011;730;48.870;12.542;2023-01-29T03:25:52;2.88;;;1.98;;
1475;SDS011;730;48.870;12.542;2023-01-29T03:28:40;2.50;;;1.80;;
1475;SDS011;730;48.870;12.542;2023-01-29T03:31:27;2.97;;;2.05;;
1475;SDS011;730;48.870;12.542;2023-01-29T03:34:15;2.40;;;2.20;;
1475;SDS011;730;48.870;12.542;2023-01-29T03:39:38;2.80;;;2.25;;
1475;SDS011;730;48.870;12.542;2023-01-29T03:42:18;2.80;;;2.10;;
1475;SDS011;730;48.870;12.542;2023-01-29T03:45:07;2.40;;;2.05;;
1475;SDS011;730;48.870;12.542;2023-01-29T03:47:43;3.17;;;2.00;;
1475;SDS011;730;48.870;12.542;2023-01-29T03:56:09;2.92;;;2.13;;
1475;SDS011;730;48.870;12.542;2023-01-29T03:58:57;4.55;;;2.08;;
1475;SDS011;730;48.870;12.542;2023-01-29T04:01:41;4.35;;;2.20;;
1475;SDS011;730;48.870;12.542;2023-01-29T04:04:46;3.00;;;2.30;;
1475;SDS011;730;48.870;12.542;2023-01-29T04:07:11;2.50;;;1.92;;
1475;SDS011;730;48.870;12.542;2023-01-29T04:09:50;3.05;;;2.08;;
1475;SDS011;730;48.870;12.542;2023-01-29T04:12:23;4.05;;;2.42;;
1475;SDS011;730;48.870;12.542;2023-01-29T04:14:53;2.35;;;2.00;;
1475;SDS011;730;48.870;12.542;2023-01-29T04:17:22;2.45;;;2.17;;
1475;SDS011;730;48.870;12.542;2023-01-29T04:19:54;2.50;;;2.10;;
1475;SDS011;730;48.870;12.542;2023-01-29T04:22:21;2.38;;;1.80;;
1475;SDS011;730;48.870;12.542;2023-01-29T04:24:52;2.95;;;2.67;;
1475;SDS011;730;48.870;12.542;2023-01-29T04:32:31;2.30;;;2.10;;
1475;SDS011;730;48.870;12.542;2023-01-29T04:35:27;3.15;;;2.63;;
1475;SDS011;730;48.870;12.542;2023-01-29T04:38:06;2.50;;;2.00;;
1475;SDS011;730;48.870;12.542;2023-01-29T04:41:15;2.80;;;2.00;;
1475;SDS011;730;48.870;12.542;2023-01-29T04:44:09;3.28;;;2.72;;
1475;SDS011;730;48.870;12.542;2023-01-29T04:49:43;2.75;;;2.35;;
1475;SDS011;730;48.870;12.542;2023-01-29T04:55:28;3.20;;;2.45;;
1475;SDS011;730;48.870;12.542;2023-01-29T05:00:40;2.85;;;2.35;;
1475;SDS011;730;48.870;12.542;2023-01-29T05:03:07;3.15;;;2.15;;
1475;SDS011;730;48.870;12.542;2023-01-29T05:05:37;3.05;;;2.70;;
1475;SDS011;730;48.870;12.542;2023-01-29T05:08:06;2.72;;;2.53;;
1475;SDS011;730;48.870;12.542;2023-01-29T05:10:33;2.70;;;2.50;;
1475;SDS011;730;48.870;12.542;2023-01-29T05:13:00;3.78;;;2.85;;
1475;SDS011;730;48.870;12.542;2023-01-29T05:15:30;2.53;;;2.33;;
1475;SDS011;730;48.870;12.542;2023-01-29T05:18:06;2.92;;;2.58;;
1475;SDS011;730;48.870;12.542;2023-01-29T05:20:34;3.10;;;2.85;;
1475;SDS011;730;48.870;12.542;2023-01-29T05:23:03;2.70;;;2.20;;
1475;SDS011;730;48.870;12.542;2023-01-29T05:25:30;2.95;;;2.50;;
1475;SDS011;730;48.870;12.542;2023-01-29T05:27:58;3.25;;;2.95;;
1475;SDS011;730;48.870;12.542;2023-01-29T05:30:41;3.25;;;2.20;;
1475;SDS011;730;48.870;12.542;2023-01-29T05:33:13;2.88;;;2.40;;
1475;SDS011;730;48.870;12.542;2023-01-29T05:35:41;3.25;;;2.95;;
1475;SDS011;730;48.870;12.542;2023-01-29T05:38:07;4.47;;;2.53;;
1475;SDS011;730;48.870;12.542;2023-01-29T05:40:33;2.90;;;2.35;;
1475;SDS011;730;48.870;12.542;2023-01-29T05:43:00;3.38;;;3.08;;
1475;SDS011;730;48.870;12.542;2023-01-29T05:45:27;3.00;;;2.30;;
1475;SDS011;730;48.870;12.542;2023-01-29T05:47:58;5.32;;;2.88;;
1475;SDS011;730;48.870;12.542;2023-01-29T05:50:25;3.75;;;3.22;;
1475;SDS011;730;48.870;12.542;2023-01-29T05:52:58;3.33;;;2.72;;
1475;SDS011;730;48.870;12.542;2023-01-29T05:55:26;3.58;;;2.85;;
1475;SDS011;730;48.870;12.542;2023-01-29T05:57:54;3.45;;;3.15;;
1475;SDS011;730;48.870;12.542;2023-01-29T06:00:21;4.03;;;2.95;;
1475;SDS011;730;48.870;12.542;2023-01-29T06:02:48;5.50;;;4.82;;
1475;SDS011;730;48.870;12.542;2023-01-29T06:05:14;4.20;;;3.40;;
1475;SDS011;730;48.870;12.542;2023-01-29T06:07:40;4.20;;;3.30;;
1475;SDS011;730;48.870;12.542;2023-01-29T06:10:13;3.17;;;2.70;;
1475;SDS011;730;48.870;12.542;2023-01-29T06:12:41;3.72;;;2.45;;
1475;SDS011;730;48.870;12.542;2023-01-29T06:15:07;3.60;;;2.78;;
1475;SDS011;730;48.870;12.542;2023-01-29T06:17:35;5.07;;;3.40;;
1475;SDS011;730;48.870;12.542;2023-01-29T06:20:03;4.57;;;3.42;;
1475;SDS011;730;48.870;12.542;2023-01-29T06:22:30;5.32;;;3.60;;
1475;SDS011;730;48.870;12.542;2023-01-29T06:24:58;3.92;;;3.22;;
1475;SDS011;730;48.870;12.542;2023-01-29T06:27:24;3.03;;;2.70;;
1475;SDS011;730;48.870;12.542;2023-01-29T06:29:51;4.40;;;3.15;;
1475;SDS011;730;48.870;12.542;2023-01-29T06:32:17;3.35;;;3.05;;
1475;SDS011;730;48.870;12.542;2023-01-29T06:34:43;4.60;;;3.90;;
1475;SDS011;730;48.870;12.542;2023-01-29T06:37:09;5.45;;;4.55;;
1475;SDS011;730;48.870;12.542;2023-01-29T06:39:35;5.30;;;4.80;;
1475;SDS011;730;48.870;12.542;2023-01-29T06:42:01;4.63;;;4.13;;
1475;SDS011;730;48.870;12.542;2023-01-29T06:44:27;3.17;;;2.65;;
1475;SDS011;730;48.870;12.542;2023-01-29T06:46:53;3.58;;;2.90;;
1475;SDS011;730;48.870;12.542;2023-01-29T06:49:22;3.83;;;3.10;;
1475;SDS011;730;48.870;12.542;2023-01-29T06:51:49;3.30;;;2.85;;
1475;SDS011;730;48.870;12.542;2023-01-29T06:54:15;3.35;;;3.00;;
1475;SDS011;730;48.870;12.542;2023-01-29T06:56:42;3.92;;;3.00;;
1475;SDS011;730;48.870;12.542;2023-01-29T06:59:09;3.40;;;2.83;;
1475;SDS011;730;48.870;12.542;2023-01-29T07:01:37;3.53;;;3.05;;
1475;SDS011;730;48.870;12.542;2023-01-29T07:04:05;3.72;;;3.15;;
1475;SDS011;730;48.870;12.542;2023-01-29T07:06:32;2.97;;;2.67;;
1475;SDS011;730;48.870;12.542;2023-01-29T07:09:00;3.63;;;3.10;;
1475;SDS011;730;48.870;12.542;2023-01-29T07:11:26;3.30;;;2.70;;
1475;SDS011;730;48.870;12.542;2023-01-29T07:13:52;4.43;;;3.17;;
1475;SDS011;730;48.870;12.542;2023-01-29T07:16:18;3.88;;;3.47;;
1475;SDS011;730;48.870;12.542;2023-01-29T07:18:44;7.07;;;4.35;;
1475;SDS011;730;48.870;12.542;2023-01-29T07:21:10;4.70;;;3.65;;
1475;SDS011;730;48.870;12.542;2023-01-29T07:23:37;4.00;;;3.60;;
1475;SDS011;730;48.870;12.542;2023-01-29T07:26:03;3.90;;;3.50;;
1475;SDS011;730;48.870;12.542;2023-01-29T07:28:30;9.25;;;7.00;;
1475;SDS011;730;48.870;12.542;2023-01-29T07:31:00;7.50;;;6.22;;
1475;SDS011;730;48.870;12.542;2023-01-29T07:33:26;6.20;;;4.60;;
1475;SDS011;730;48.870;12.542;2023-01-29T07:35:52;4.75;;;3.67;;
1475;SDS011;730;48.870;12.542;2023-01-29T07:38:18;4.15;;;3.38;;
1475;SDS011;730;48.870;12.542;2023-01-29T07:40:45;3.83;;;3.40;;
1475;SDS011;730;48.870;12.542;2023-01-29T07:43:12;3.92;;;3.20;;
1475;SDS011;730;48.870;12.542;2023-01-29T07:45:38;7.85;;;6.28;;
1475;SDS011;730;48.870;12.542;2023-01-29T07:48:05;5.38;;;4.05;;
1475;SDS011;730;48.870;12.542;2023-01-29T07:50:34;3.88;;;3.55;;
1475;SDS011;730;48.870;12.542;2023-01-29T07:53:00;5.10;;;4.60;;
1475;SDS011;730;48.870;12.542;2023-01-29T07:55:27;3.88;;;3.50;;
1475;SDS011;730;48.870;12.542;2023-01-29T07:57:57;4.22;;;3.35;;
1475;SDS011;730;48.870;12.542;2023-01-29T08:00:29;4.10;;;3.70;;
1475;SDS011;730;48.870;12.542;2023-01-29T08:03:03;4.72;;;4.22;;
1475;SDS011;730;48.870;12.542;2023-01-29T08:05:31;3.95;;;3.53;;
1475;SDS011;730;48.870;12.542;2023-01-29T08:07:57;4.25;;;3.85;;
1475;SDS011;730;48.870;12.542;2023-01-29T08:10:23;5.40;;;4.57;;
1475;SDS011;730;48.870;12.542;2023-01-29T08:12:54;5.15;;;4.65;;
1475;SDS011;730;48.870;12.542;2023-01-29T08:15:24;5.03;;;4.40;;
1475;SDS011;730;48.870;12.542;2023-01-29T08:17:50;4.88;;;4.47;;
1475;SDS011;730;48.870;12.542;2023-01-29T08:20:18;4.20;;;3.50;;
1475;SDS011;730;48.870;12.542;2023-01-29T08:22:45;4.20;;;3.78;;
1475;SDS011;730;48.870;12.542;2023-01-29T08:25:11;4.50;;;4.07;;
1475;SDS011;730;48.870;12.542;2023-01-29T08:27:38;4.38;;;3.20;;
1475;SDS011;730;48.870;12.542;2023-01-29T08:30:05;4.95;;;3.55;;
1475;SDS011;730;48.870;12.542;2023-01-29T08:32:31;5.32;;;4.10;;
1475;SDS011;730;48.870;12.542;2023-01-29T08:34:57;5.57;;;4.20;;
1475;SDS011;730;48.870;12.542;2023-01-29T08:37:23;5.28;;;4.78;;
1475;SDS011;730;48.870;12.542;2023-01-29T08:39:49;4.95;;;4.00;;
1475;SDS011;730;48.870;12.542;2023-01-29T08:42:15;5.40;;;3.63;;
1475;SDS011;730;48.870;12.542;2023-01-29T08:44:43;3.20;;;2.90;;
1475;SDS011;730;48.870;12.542;2023-01-29T08:47:09;3.78;;;3.33;;
1475;SDS011;730;48.870;12.542;2023-01-29T08:49:36;4.55;;;3.88;;
1475;SDS011;730;48.870;12.542;2023-01-29T08:52:02;4.75;;;3.70;;
1475;SDS011;730;48.870;12.542;2023-01-29T08:54:28;3.70;;;3.30;;
1475;SDS011;730;48.870;12.542;2023-01-29T08:56:54;4.97;;;3.88;;
1475;SDS011;730;48.870;12.542;2023-01-29T08:59:20;3.83;;;3.35;;
1475;SDS011;730;48.870;12.542;2023-01-29T09:01:49;3.90;;;3.50;;
1475;SDS011;730;48.870;12.542;2023-01-29T09:04:15;4.15;;;3.72;;
1475;SDS011;730;48.870;12.542;2023-01-29T09:06:47;5.88;;;5.22;;
1475;SDS011;730;48.870;12.542;2023-01-29T09:09:13;6.07;;;4.50;;
1475;SDS011;730;48.870;12.542;2023-01-29T09:11:40;4.30;;;3.78;;
1475;SDS011;730;48.870;12.542;2023-01-29T09:14:07;3.78;;;3.40;;
1475;SDS011;730;48.870;12.542;2023-01-29T09:16:34;3.40;;;2.88;;
1475;SDS011;730;48.870;12.542;2023-01-29T09:19:00;3.97;;;3.60;;
1475;SDS011;730;48.870;12.542;2023-01-29T09:21:26;5.80;;;4.20;;
1475;SDS011;730;48.870;12.542;2023-01-29T09:23:52;4.30;;;3.90;;
1475;SDS011;730;48.870;12.542;2023-01-29T09:26:18;6.10;;;3.95;;
1475;SDS011;730;48.870;12.542;2023-01-29T09:28:44;6.65;;;5.15;;
1475;SDS011;730;48.870;12.542;2023-01-29T09:31:12;5.75;;;4.07;;
1475;SDS011;730;48.870;12.542;2023-01-29T09:33:38;4.20;;;3.80;;
1475;SDS011;730;48.870;12.542;2023-01-29T09:36:05;3.75;;;3.38;;
1475;SDS011;730;48.870;12.542;2023-01-29T09:38:31;4.75;;;4.30;;
1475;SDS011;730;48.870;12.542;2023-01-29T09:41:17;4.05;;;3.67;;
1475;SDS011;730;48.870;12.542;2023-01-29T09:43:52;5.40;;;4.60;;
1475;SDS011;730;48.870;12.542;2023-01-29T09:46:44;3.80;;;3.40;;
1475;SDS011;730;48.870;12.542;2023-01-29T09:49:14;4.18;;;3.78;;
1475;SDS011;730;48.870;12.542;2023-01-29T09:52:01;5.05;;;3.30;;
1475;SDS011;730;48.870;12.542;2023-01-29T09:54:34;4.07;;;3.50;;
1475;SDS011;730;48.870;12.542;2023-01-29T09:57:18;4.70;;;3.70;;
1475;SDS011;730;48.870;12.542;2023-01-29T09:59:52;3.83;;;3.50;;
1475;SDS011;730;48.870;12.542;2023-01-29T10:13:25;5.10;;;4.60;;
1475;SDS011;730;48.870;12.542;2023-01-29T10:16:20;3.70;;;3.35;;
1475;SDS011;730;48.870;12.542;2023-01-29T10:19:07;4.43;;;3.50;;
1475;SDS011;730;48.870;12.542;2023-01-29T10:26:59;5.30;;;3.92;;
1475;SDS011;730;48.870;12.542;2023-01-29T10:29:26;4.85;;;3.95;;
1475;SDS011;730;48.870;12.542;2023-01-29T10:31:57;4.03;;;3.42;;
1475;SDS011;730;48.870;12.542;2023-01-29T10:34:32;4.95;;;4.45;;
1475;SDS011;730;48.870;12.542;2023-01-29T10:37:27;4.55;;;4.15;;
1475;SDS011;730;48.870;12.542;2023-01-29T10:39:59;5.03;;;4.38;;
1475;SDS011;730;48.870;12.542;2023-01-29T10:42:27;5.22;;;4.68;;
1475;SDS011;730;48.870;12.542;2023-01-29T10:45:01;4.63;;;4.22;;
1475;SDS011;730;48.870;12.542;2023-01-29T10:48:02;4.22;;;3.80;;
1475;SDS011;730;48.870;12.542;2023-01-29T10:50:54;6.13;;;4.80;;
1475;SDS011;730;48.870;12.542;2023-01-29T10:53:47;5.68;;;4.95;;
1475;SDS011;730;48.870;12.542;2023-01-29T10:56:50;8.00;;;5.05;;
1475;SDS011;730;48.870;12.542;2023-01-29T10:59:42;6.43;;;4.50;;
1475;SDS011;730;48.870;12.542;2023-01-29T11:02:17;7.43;;;4.93;;
1475;SDS011;730;48.870;12.542;2023-01-29T11:04:46;6.43;;;5.78;;
1475;SDS011;730;48.870;12.542;2023-01-29T11:07:12;5.72;;;5.20;;
1475;SDS011;730;48.870;12.542;2023-01-29T11:09:55;6.88;;;5.75;;
1475;SDS011;730;48.870;12.542;2023-01-29T11:12:30;4.97;;;4.57;;
1475;SDS011;730;48.870;12.542;2023-01-29T11:15:00;7.32;;;5.40;;
1475;SDS011;730;48.870;12.542;2023-01-29T11:17:31;5.60;;;5.10;;
1475;SDS011;730;48.870;12.542;2023-01-29T11:19:57;4.95;;;4.55;;
1475;SDS011;730;48.870;12.542;2023-01-29T11:22:24;5.38;;;4.75;;
1475;SDS011;730;48.870;12.542;2023-01-29T11:25:08;4.53;;;4.13;;
1475;SDS011;730;48.870;12.542;2023-01-29T11:27:42;5.45;;;4.65;;
1475;SDS011;730;48.870;12.542;2023-01-29T11:30:29;5.22;;;4.70;;
1475;SDS011;730;48.870;12.542;2023-01-29T11:35:47;5.18;;;4.68;;
1475;SDS011;730;48.870;12.542;2023-01-29T11:40:40;5.77;;;4.70;;
1475;SDS011;730;48.870;12.542;2023-01-29T11:43:12;6.25;;;5.07;;
1475;SDS011;730;48.870;12.542;2023-01-29T11:45:49;9.40;;;6.18;;
1475;SDS011;730;48.870;12.542;2023-01-29T11:48:19;5.45;;;4.82;;
1475;SDS011;730;48.870;12.542;2023-01-29T11:50:57;4.90;;;4.40;;
1475;SDS011;730;48.870;12.542;2023-01-29T11:53:33;5.50;;;4.72;;
1475;SDS011;730;48.870;12.542;2023-01-29T11:56:19;5.38;;;4.88;;
1475;SDS011;730;48.870;12.542;2023-01-29T11:59:03;4.78;;;4.30;;
1475;SDS011;730;48.870;12.542;2023-01-29T12:01:36;5.60;;;5.07;;
1475;SDS011;730;48.870;12.542;2023-01-29T12:04:23;5.47;;;4.93;;
1475;SDS011;730;48.870;12.542;2023-01-29T12:06:51;5.38;;;4.47;;
1475;SDS011;730;48.870;12.542;2023-01-29T12:09:19;6.05;;;5.13;;
1475;SDS011;730;48.870;12.542;2023-01-29T12:11:52;5.03;;;4.53;;
1475;SDS011;730;48.870;12.542;2023-01-29T12:14:28;6.05;;;5.45;;
1475;SDS011;730;48.870;12.542;2023-01-29T12:17:03;5.25;;;4.75;;
1475;SDS011;730;48.870;12.542;2023-01-29T12:29:58;5.05;;;4.55;;
1475;SDS011;730;48.870;12.542;2023-01-29T12:32:41;5.50;;;4.95;;
1475;SDS011;730;48.870;12.542;2023-01-29T12:35:25;5.63;;;5.13;;
1475;SDS011;730;48.870;12.542;2023-01-29T12:38:02;5.45;;;4.97;;
1475;SDS011;730;48.870;12.542;2023-01-29T12:43:22;5.57;;;5.07;;
1475;SDS011;730;48.870;12.542;2023-01-29T12:45:53;6.45;;;4.80;;
1475;SDS011;730;48.870;12.542;2023-01-29T12:48:23;6.25;;;5.40;;
1475;SDS011;730;48.870;12.542;2023-01-29T12:51:03;6.45;;;5.65;;
1475;SDS011;730;48.870;12.542;2023-01-29T12:53:38;6.20;;;5.70;;
1475;SDS011;730;48.870;12.542;2023-01-29T12:56:19;6.80;;;5.22;;
1475;SDS011;730;48.870;12.542;2023-01-29T12:58:53;6.35;;;5.70;;
1475;SDS011;730;48.870;12.542;2023-01-29T13:01:26;5.88;;;5.28;;
1475;SDS011;730;48.870;12.542;2023-01-29T13:06:49;7.00;;;6.30;;
1475;SDS011;730;48.870;12.542;2023-01-29T13:09:23;5.80;;;5.20;;
1475;SDS011;730;48.870;12.542;2023-01-29T13:14:20;7.63;;;5.80;;
1475;SDS011;730;48.870;12.542;2023-01-29T13:16:51;4.80;;;4.30;;
1475;SDS011;730;48.870;12.542;2023-01-29T13:19:28;6.65;;;6.05;;
1475;SDS011;730;48.870;12.542;2023-01-29T13:22:00;4.70;;;4.30;;
1475;SDS011;730;48.870;12.542;2023-01-29T13:24:32;6.30;;;5.70;;
1475;SDS011;730;48.870;12.542;2023-01-29T13:27:03;8.77;;;7.88;;
1475;SDS011;730;48.870;12.542;2023-01-29T13:29:30;11.57;;;8.27;;
1475;SDS011;730;48.870;12.542;2023-01-29T13:31:57;6.47;;;5.78;;
1475;SDS011;730;48.870;12.542;2023-01-29T13:34:28;5.65;;;5.15;;
1475;SDS011;730;48.870;12.542;2023-01-29T13:37:03;6.07;;;5.47;;
1475;SDS011;730;48.870;12.542;2023-01-29T13:39:36;6.78;;;5.70;;
1475;SDS011;730;48.870;12.542;2023-01-29T13:42:18;7.18;;;6.18;;
1475;SDS011;730;48.870;12.542;2023-01-29T13:44:54;6.03;;;5.30;;
1475;SDS011;730;48.870;12.542;2023-01-29T13:47:23;7.40;;;6.40;;
1475;SDS011;730;48.870;12.542;2023-01-29T13:49:56;7.35;;;6.10;;
1475;SDS011;730;48.870;12.542;2023-01-29T13:52:45;7.05;;;6.35;;
1475;SDS011;730;48.870;12.542;2023-01-29T13:55:23;8.05;;;5.97;;
1475;SDS011;730;48.870;12.542;2023-01-29T13:58:02;5.93;;;5.20;;
1475;SDS011;730;48.870;12.542;2023-01-29T14:08:37;8.40;;;6.00;;
1475;SDS011;730;48.870;12.542;2023-01-29T14:13:41;6.90;;;5.60;;
1475;SDS011;730;48.870;12.542;2023-01-29T14:18:35;7.93;;;6.45;;
1475;SDS011;730;48.870;12.542;2023-01-29T14:26:01;8.38;;;7.40;;
1475;SDS011;730;48.870;12.542;2023-01-29T14:28:29;17.48;;;12.80;;
1475;SDS011;730;48.870;12.542;2023-01-29T14:30:57;6.32;;;5.63;;
1475;SDS011;730;48.870;12.542;2023-01-29T14:33:30;5.28;;;4.78;;
1475;SDS011;730;48.870;12.542;2023-01-29T14:36:02;5.05;;;4.55;;
1475;SDS011;730;48.870;12.542;2023-01-29T14:38:36;4.90;;;4.50;;
1475;SDS011;730;48.870;12.542;2023-01-29T14:41:15;5.00;;;4.50;;
1475;SDS011;730;48.870;12.542;2023-01-29T14:43:50;5.60;;;4.82;;
1475;SDS011;730;48.870;12.542;2023-01-29T14:46:40;6.28;;;5.68;;
1475;SDS011;730;48.870;12.542;2023-01-29T14:49:08;6.32;;;5.40;;
1475;SDS011;730;48.870;12.542;2023-01-29T14:51:35;6.93;;;5.45;;
1475;SDS011;730;48.870;12.542;2023-01-29T14:54:19;6.13;;;5.00;;
1475;SDS011;730;48.870;12.542;2023-01-29T14:56:54;5.80;;;5.13;;
1475;SDS011;730;48.870;12.542;2023-01-29T14:59:36;7.95;;;7.25;;
1475;SDS011;730;48.870;12.542;2023-01-29T15:02:13;5.35;;;4.85;;
1475;SDS011;730;48.870;12.542;2023-01-29T15:04:47;5.32;;;4.63;;
1475;SDS011;730;48.870;12.542;2023-01-29T15:12:51;5.20;;;4.55;;
1475;SDS011;730;48.870;12.542;2023-01-29T15:18:19;6.20;;;5.60;;
1475;SDS011;730;48.870;12.542;2023-01-29T15:21:03;6.53;;;5.93;;
1475;SDS011;730;48.870;12.542;2023-01-29T15:23:36;6.72;;;5.60;;
1475;SDS011;730;48.870;12.542;2023-01-29T15:26:04;6.47;;;5.60;;
1475;SDS011;730;48.870;12.542;2023-01-29T15:28:36;6.68;;;5.55;;
1475;SDS011;730;48.870;12.542;2023-01-29T15:31:04;7.70;;;6.07;;
1475;SDS011;730;48.870;12.542;2023-01-29T15:33:36;6.40;;;5.25;;
1475;SDS011;730;48.870;12.542;2023-01-29T15:36:06;7.28;;;5.60;;
1475;SDS011;730;48.870;12.542;2023-01-29T15:38:32;6.00;;;5.40;;
1475;SDS011;730;48.870;12.542;2023-01-29T15:40:59;7.60;;;6.15;;
1475;SDS011;730;48.870;12.542;2023-01-29T15:43:42;8.90;;;6.50;;
1475;SDS011;730;48.870;12.542;2023-01-29T15:46:19;6.50;;;5.68;;
1475;SDS011;730;48.870;12.542;2023-01-29T15:48:50;6.60;;;5.90;;
1475;SDS011;730;48.870;12.542;2023-01-29T15:51:19;6.07;;;5.45;;
1475;SDS011;730;48.870;12.542;2023-01-29T15:53:48;5.85;;;5.10;;
1475;SDS011;730;48.870;12.542;2023-01-29T15:59:12;6.72;;;4.80;;
1475;SDS011;730;48.870;12.542;2023-01-29T16:01:42;6.35;;;5.20;;
1475;SDS011;730;48.870;12.542;2023-01-29T16:04:09;6.80;;;5.50;;
1475;SDS011;730;48.870;12.542;2023-01-29T16:06:43;7.25;;;5.57;;
1475;SDS011;730;48.870;12.542;2023-01-29T16:09:13;5.90;;;5.20;;
1475;SDS011;730;48.870;12.542;2023-01-29T16:11:43;6.93;;;5.05;;
1475;SDS011;730;48.870;12.542;2023-01-29T16:14:13;15.05;;;11.13;;
1475;SDS011;730;48.870;12.542;2023-01-29T16:16:43;15.88;;;10.23;;
1475;SDS011;730;48.870;12.542;2023-01-29T16:19:23;9.25;;;7.75;;
1475;SDS011;730;48.870;12.542;2023-01-29T16:24:30;5.93;;;5.07;;
1475;SDS011;730;48.870;12.542;2023-01-29T16:27:01;5.00;;;4.50;;
1475;SDS011;730;48.870;12.542;2023-01-29T16:29:34;6.45;;;4.95;;
1475;SDS011;730;48.870;12.542;2023-01-29T16:34:54;6.13;;;5.00;;
1475;SDS011;730;48.870;12.542;2023-01-29T16:37:23;7.07;;;5.90;;
1475;SDS011;730;48.870;12.542;2023-01-29T16:39:55;6.50;;;5.80;;
1475;SDS011;730;48.870;12.542;2023-01-29T16:42:24;6.20;;;5.60;;
1475;SDS011;730;48.870;12.542;2023-01-29T16:44:53;7.25;;;6.45;;
1475;SDS011;730;48.870;12.542;2023-01-29T16:52:55;16.55;;;12.50;;
1475;SDS011;730;48.870;12.542;2023-01-29T16:55:25;17.75;;;12.77;;
1475;SDS011;730;48.870;12.542;2023-01-29T16:57:54;13.30;;;9.95;;
1475;SDS011;730;48.870;12.542;2023-01-29T17:00:22;11.68;;;9.20;;
1475;SDS011;730;48.870;12.542;2023-01-29T17:02:53;12.13;;;9.70;;
1475;SDS011;730;48.870;12.542;2023-01-29T17:05:28;11.43;;;9.02;;
1475;SDS011;730;48.870;12.542;2023-01-29T17:07:57;9.50;;;8.43;;
1475;SDS011;730;48.870;12.542;2023-01-29T17:10:25;8.88;;;7.28;;
1475;SDS011;730;48.870;12.542;2023-01-29T17:12:54;7.30;;;6.55;;
1475;SDS011;730;48.870;12.542;2023-01-29T17:17:55;9.35;;;8.05;;
1475;SDS011;730;48.870;12.542;2023-01-29T17:20:21;8.88;;;7.80;;
1475;SDS011;730;48.870;12.542;2023-01-29T17:22:48;11.00;;;8.40;;
1475;SDS011;730;48.870;12.542;2023-01-29T17:25:14;9.85;;;7.25;;
1475;SDS011;730;48.870;12.542;2023-01-29T17:27:43;6.80;;;5.97;;
1475;SDS011;730;48.870;12.542;2023-01-29T17:30:19;7.55;;;6.57;;
1475;SDS011;730;48.870;12.542;2023-01-29T17:32:55;6.97;;;6.22;;
1475;SDS011;730;48.870;12.542;2023-01-29T17:35:21;7.73;;;6.80;;
1475;SDS011;730;48.870;12.542;2023-01-29T17:37:48;6.63;;;6.00;;
1475;SDS011;730;48.870;12.542;2023-01-29T17:42:43;10.10;;;8.20;;
1475;SDS011;730;48.870;12.542;2023-01-29T17:45:09;7.85;;;6.88;;
1475;SDS011;730;48.870;12.542;2023-01-29T17:47:35;7.28;;;6.57;;
1475;SDS011;730;48.870;12.542;2023-01-29T17:50:01;7.63;;;6.60;;